Time;durP1;ratioP1;P1;durP2;ratioP2;P2;SDS_P1;SDS_P2;PMS_P1;PMS_P2;Temp;Humidity;BMP_temperature;BMP_pressure;BME280_temperature;BME280_humidity;BME280_pressure;Samples;Min_cycle;Max_cycle;Signal;HPM_P1;HPM_P2
2024/02/22 00:00:47;;;;;;;4.28;2.00;;;;;;;8.29;98.29;99553.28;4972442;28;20065;-80
2024/02/22 00:03:22;;;;;;;3.22;2.08;;;;;;;8.25;98.93;99549.28;4994165;28;20073;-80
2024/02/22 00:06:02;;;;;;;2.90;2.10;;;;;;;8.31;99.39;99548.72;4981777;28;20079;-80
2024/02/22 00:08:35;;;;;;;5.00;2.00;;;;;;;8.33;98.50;99547.56;4979340;28;20065;-82
2024/02/22 00:11:17;;;;;;;4.13;1.95;;;;;;;8.37;98.78;99553.41;4979452;28;20102;-79
2024/02/22 00:14:02;;;;;;;3.22;1.23;;;;;;;8.40;98.71;99541.75;4986664;28;20306;-78
2024/02/22 00:16:48;;;;;;;3.35;1.40;;;;;;;8.35;99.50;99534.25;4982961;28;20062;-80
2024/02/22 00:19:36;;;;;;;1.20;1.10;;;;;;;8.37;99.07;99534.13;4982164;28;20075;-81
2024/02/22 00:22:04;;;;;;;2.50;1.35;;;;;;;8.33;99.28;99528.28;4980656;28;20089;-82
2024/02/22 00:24:42;;;;;;;1.70;1.13;;;;;;;8.38;100.00;99535.78;4985786;28;20058;-82
2024/02/22 00:27:16;;;;;;;0.70;0.70;;;;;;;8.45;99.45;99528.97;4985920;28;20046;-79
2024/02/22 00:29:57;;;;;;;1.92;1.10;;;;;;;8.45;99.30;99521.88;4986250;28;20150;-80
2024/02/22 00:32:31;;;;;;;1.00;0.75;;;;;;;8.44;99.33;99525.50;4978773;28;20051;-80
2024/02/22 00:34:58;;;;;;;1.90;1.02;;;;;;;8.41;100.00;99522.31;4985784;28;20081;-78
2024/02/22 00:37:42;;;;;;;1.38;0.90;;;;;;;8.45;100.00;99516.59;4978213;28;20063;-79
2024/02/22 00:40:33;;;;;;;0.73;0.68;;;;;;;8.42;100.00;99516.06;4979362;28;20051;-80
2024/02/22 00:43:20;;;;;;;0.85;0.82;;;;;;;8.46;99.89;99512.97;4981543;28;20164;-80
2024/02/22 00:46:05;;;;;;;;;;;;;;;;;;;;;
2024/02/22 00:51:41;;;;;;;1.05;0.82;;;;;;;8.46;100.00;99494.53;4989021;28;20046;-81
2024/02/22 00:54:25;;;;;;;2.13;0.85;;;;;;;8.42;100.00;99487.88;4967329;28;20058;-80
2024/02/22 00:56:52;;;;;;;1.55;1.30;;;;;;;8.47;100.00;99485.63;5003496;28;20109;-83
2024/02/22 00:59:21;;;;;;;1.17;1.00;;;;;;;8.46;100.00;99486.63;5002977;28;20066;-82
2024/02/22 01:01:56;;;;;;;1.23;0.85;;;;;;;8.49;100.00;99478.41;5003820;28;20053;-83
2024/02/22 01:04:23;;;;;;;2.13;0.93;;;;;;;8.55;100.00;99471.72;4996294;28;20121;-82
2024/02/22 01:06:52;;;;;;;1.13;0.98;;;;;;;8.51;100.00;99468.53;5003051;28;20481;-82
2024/02/22 01:09:22;;;;;;;3.10;0.98;;;;;;;8.47;100.00;99459.25;5000194;28;20131;-81
2024/02/22 01:11:52;;;;;;;2.20;1.40;;;;;;;8.43;100.00;99463.19;4992145;28;20057;-82
2024/02/22 01:14:20;;;;;;;1.00;0.70;;;;;;;8.45;100.00;99450.69;4987901;28;20050;-80
2024/02/22 01:17:21;;;;;;;1.45;1.30;;;;;;;8.46;100.00;99436.53;5004287;28;20057;-82
2024/02/22 01:19:48;;;;;;;1.13;0.98;;;;;;;8.49;100.00;99433.59;4993334;28;20054;-82
2024/02/22 01:31:56;;;;;;;0.93;0.93;;;;;;;8.46;100.00;99410.16;4994053;28;20058;-81
2024/02/22 01:34:46;;;;;;;0.50;0.50;;;;;;;8.55;100.00;99401.34;5000972;28;20065;-81
2024/02/22 01:37:28;;;;;;;0.82;0.82;;;;;;;8.54;100.00;99399.69;5002620;28;20050;-79
2024/02/22 01:43:04;;;;;;;1.40;1.00;;;;;;;8.55;100.00;99385.53;4989729;28;20532;-83
2024/02/22 01:45:35;;;;;;;1.33;0.95;;;;;;;8.57;100.00;99383.56;4997908;28;20057;-79
2024/02/22 01:48:02;;;;;;;1.98;1.05;;;;;;;8.58;100.00;99379.13;4997060;28;20051;-82
2024/02/22 01:50:37;;;;;;;1.02;0.93;;;;;;;8.61;100.00;99376.16;5000992;28;20101;-83
2024/02/22 01:53:13;;;;;;;0.70;0.70;;;;;;;8.64;100.00;99377.69;5001240;28;20081;-82
2024/02/22 01:55:50;;;;;;;2.10;0.82;;;;;;;8.61;100.00;99376.16;5002039;28;20080;-80
2024/02/22 01:58:42;;;;;;;0.80;0.80;;;;;;;8.62;100.00;99369.94;5003245;28;20058;-79
2024/02/22 02:03:51;;;;;;;1.00;0.90;;;;;;;8.61;100.00;99358.53;4998997;28;20046;-79
2024/02/22 02:06:45;;;;;;;0.68;0.68;;;;;;;8.58;100.00;99352.75;4998799;28;20050;-80
2024/02/22 02:09:35;;;;;;;0.85;0.85;;;;;;;8.55;100.00;99347.78;4998672;28;20054;-80
2024/02/22 02:12:40;;;;;;;0.77;0.77;;;;;;;8.63;100.00;99355.75;4947445;28;20536;-80
2024/02/22 02:15:48;;;;;;;1.83;0.77;;;;;;;8.58;100.00;99342.22;4938352;29;20514;-80
2024/02/22 02:21:07;;;;;;;2.00;1.13;;;;;;;8.65;100.00;99347.69;4989664;28;20090;-80
2024/02/22 02:23:48;;;;;;;0.88;0.88;;;;;;;8.70;100.00;99332.22;4990986;28;20449;-80
2024/02/22 02:26:17;;;;;;;1.75;1.15;;;;;;;8.64;100.00;99340.75;4996908;28;20069;-79
2024/02/22 02:28:45;;;;;;;1.27;1.17;;;;;;;8.61;100.00;99332.16;4996219;28;20082;-81
2024/02/22 02:38:10;;;;;;;1.65;1.10;;;;;;;8.61;100.00;99323.41;4824532;29;20432;-82
2024/02/22 02:51:34;;;;;;;1.25;0.95;;;;;;;8.74;100.00;99297.47;4921869;29;20344;-82
2024/02/22 02:54:06;;;;;;;0.85;0.73;;;;;;;8.68;100.00;99295.47;4976085;28;20054;-82
2024/02/22 02:57:01;;;;;;;1.10;1.00;;;;;;;8.63;100.00;99291.66;5000892;28;20050;-83
2024/02/22 02:59:30;;;;;;;0.80;0.75;;;;;;;8.65;100.00;99281.75;4993695;28;20058;-83
2024/02/22 03:01:59;;;;;;;0.70;0.70;;;;;;;8.61;100.00;99279.41;5000409;28;20058;-83
2024/02/22 03:04:26;;;;;;;1.92;0.93;;;;;;;8.71;100.00;99278.50;4999789;28;20108;-82
2024/02/22 03:06:59;;;;;;;0.98;0.80;;;;;;;8.80;100.00;99277.56;5000082;28;20058;-81
2024/02/22 03:15:51;;;;;;;2.42;0.70;;;;;;;8.74;100.00;99273.72;4996580;28;20058;-80
2024/02/22 03:22:35;;;;;;;1.20;1.00;;;;;;;8.76;100.00;99270.97;4882761;29;20068;-78
2024/02/22 03:43:20;;;;;;;;;;;;;;;;;;;;;
2024/02/22 03:56:59;;;;;;;1.27;1.17;;;;;;;8.69;100.00;99236.44;4814381;29;20451;-80
2024/02/22 03:59:37;;;;;;;1.98;1.20;;;;;;;8.66;100.00;99242.06;4828473;29;20049;-81
2024/02/22 04:02:10;;;;;;;1.27;0.90;;;;;;;8.78;100.00;99239.97;4880681;29;20053;-80
2024/02/22 04:04:55;;;;;;;0.80;0.80;;;;;;;8.77;100.00;99230.41;4895351;29;20520;-78
2024/02/22 04:07:37;;;;;;;0.80;0.75;;;;;;;8.73;100.00;99229.06;4976130;28;20436;-82
2024/02/22 04:10:41;;;;;;;0.93;0.80;;;;;;;8.75;100.00;99227.06;4986520;28;20070;-80
2024/02/22 04:13:36;;;;;;;3.05;1.10;;;;;;;8.75;100.00;99217.38;4985777;28;20059;-79
2024/02/22 04:22:05;;;;;;;0.80;0.80;;;;;;;8.69;100.00;99196.06;4986749;28;20247;-80
2024/02/22 04:24:31;;;;;;;1.38;0.70;;;;;;;8.74;100.00;99191.16;4992392;28;20118;-81
2024/02/22 04:28:03;;;;;;;;;;;;;;;;;;;;;
2024/02/22 04:37:08;;;;;;;2.95;1.20;;;;;;;8.65;100.00;99184.19;4956312;22;20054;-78
2024/02/22 04:39:35;;;;;;;1.70;0.93;;;;;;;8.65;100.00;99186.81;5016068;28;20117;-77
2024/02/22 04:42:01;;;;;;;1.20;0.85;;;;;;;8.66;100.00;99180.56;5016289;28;20042;-79
2024/02/22 04:44:28;;;;;;;1.27;0.90;;;;;;;8.62;100.00;99180.06;5017894;28;20121;-78
2024/02/22 04:46:55;;;;;;;0.93;0.85;;;;;;;8.66;100.00;99180.56;5015715;28;20588;-79
2024/02/22 04:49:22;;;;;;;2.45;1.20;;;;;;;8.60;100.00;99177.56;5010147;28;20064;-78
2024/02/22 04:51:51;;;;;;;1.77;0.98;;;;;;;8.67;100.00;99177.78;5018449;28;20054;-77
2024/02/22 04:54:19;;;;;;;2.42;1.05;;;;;;;8.63;100.00;99168.53;5017647;28;20405;-79
2024/02/22 04:56:46;;;;;;;1.08;0.90;;;;;;;8.66;100.00;99172.63;5018229;28;20113;-79
2024/02/22 04:59:12;;;;;;;0.82;0.82;;;;;;;8.65;100.00;99165.72;5017429;28;20073;-79
2024/02/22 05:01:39;;;;;;;2.58;1.17;;;;;;;8.72;100.00;99156.19;5021697;28;20137;-79
2024/02/22 05:04:06;;;;;;;1.35;0.90;;;;;;;8.67;100.00;99161.94;5023978;28;20050;-79
2024/02/22 05:06:32;;;;;;;1.20;0.90;;;;;;;8.64;100.00;99156.16;5016580;28;20120;-78
2024/02/22 05:08:59;;;;;;;1.73;1.17;;;;;;;8.76;100.00;99152.25;5012109;28;20054;-78
2024/02/22 05:11:27;;;;;;;1.27;1.17;;;;;;;8.74;100.00;99141.03;5014777;28;20507;-78
2024/02/22 05:13:57;;;;;;;2.15;1.17;;;;;;;8.64;100.00;99140.34;5018585;28;20073;-77
2024/02/22 05:16:26;;;;;;;1.27;1.17;;;;;;;8.65;100.00;99144.63;5009694;28;20496;-78
2024/02/22 05:18:53;;;;;;;1.27;0.90;;;;;;;8.65;100.00;99134.91;5014481;28;20572;-78
2024/02/22 05:21:22;;;;;;;3.97;1.40;;;;;;;8.63;100.00;99138.69;5014216;28;20057;-78
2024/02/22 05:23:48;;;;;;;2.25;1.98;;;;;;;8.61;100.00;99137.03;5017255;28;20073;-78
2024/02/22 05:26:15;;;;;;;2.70;2.08;;;;;;;8.62;100.00;99137.88;5014256;28;20165;-77
2024/02/22 05:28:43;;;;;;;4.28;3.22;;;;;;;8.66;100.00;99117.25;5010231;28;20136;-78
2024/02/22 05:31:24;;;;;;;3.20;2.50;;;;;;;8.70;100.00;99108.03;5011746;28;20137;-77
2024/02/22 05:33:51;;;;;;;2.83;2.53;;;;;;;8.66;100.00;99106.72;5016341;28;20096;-78
2024/02/22 05:36:19;;;;;;;2.70;2.05;;;;;;;8.67;100.00;99100.47;5013040;28;20056;-77
2024/02/22 05:38:46;;;;;;;5.70;4.32;;;;;;;8.67;100.00;99093.38;5012970;28;20141;-78
2024/02/22 05:41:12;;;;;;;5.20;4.07;;;;;;;8.69;100.00;99095.84;5013926;28;20050;-78
2024/02/22 05:43:39;;;;;;;4.20;3.17;;;;;;;8.67;100.00;99092.56;5016547;28;20570;-78
2024/02/22 05:46:07;;;;;;;1.83;1.48;;;;;;;8.69;100.00;99095.84;5014307;28;20081;-77
2024/02/22 05:48:34;;;;;;;4.40;3.90;;;;;;;8.66;100.00;99096.16;5015082;28;20105;-78
2024/02/22 05:51:01;;;;;;;3.97;3.22;;;;;;;8.72;100.00;99092.91;5017623;28;20160;-79
2024/02/22 05:53:27;;;;;;;3.10;2.80;;;;;;;8.68;100.00;99100.31;5014523;28;20061;-78
2024/02/22 05:55:54;;;;;;;6.15;3.03;;;;;;;8.74;100.00;99096.19;5013944;28;20092;-78
2024/02/22 05:58:21;;;;;;;3.22;2.92;;;;;;;8.74;100.00;99104.09;5013731;28;20158;-78
2024/02/22 06:00:48;;;;;;;4.88;3.50;;;;;;;8.75;100.00;99103.97;5016607;28;20042;-78
2024/02/22 06:03:16;;;;;;;5.22;4.68;;;;;;;8.71;100.00;99100.00;5022770;28;20096;-77
2024/02/22 06:05:49;;;;;;;8.15;6.30;;;;;;;8.71;100.00;99091.25;4999947;28;20619;-77
2024/02/22 06:08:15;;;;;;;;;;;;;;;8.81;100.00;99086.66;5012045;28;20394;-78
2024/02/22 06:10:42;;;;;;;1.92;1.80;;;;;;;8.79;99.98;99083.34;5014510;28;20296;-78
2024/02/22 06:13:09;;;;;;;5.18;3.65;;;;;;;8.80;99.06;99077.94;5012400;28;20046;-79
2024/02/22 06:15:36;;;;;;;2.80;2.20;;;;;;;8.85;99.45;99064.25;5004800;28;20107;-78
2024/02/22 06:18:03;;;;;;;2.50;1.75;;;;;;;8.78;99.94;99057.97;5011720;28;20354;-78
2024/02/22 06:20:32;;;;;;;3.53;1.75;;;;;;;8.79;99.32;99055.16;5013042;28;20050;-79
2024/02/22 06:22:59;;;;;;;2.05;1.85;;;;;;;8.85;99.29;99061.63;5012487;28;20076;-78
2024/02/22 06:25:25;;;;;;;2.80;2.50;;;;;;;8.81;99.36;99057.66;5014498;28;20045;-79
2024/02/22 06:27:53;;;;;;;2.03;1.83;;;;;;;8.82;98.96;99059.28;5014020;28;20097;-79
2024/02/22 06:30:20;;;;;;;3.00;1.70;;;;;;;8.84;99.16;99052.06;5013210;28;20145;-79
2024/02/22 06:32:46;;;;;;;1.55;1.45;;;;;;;8.99;98.15;99049.59;5013757;28;20054;-79
2024/02/22 06:35:13;;;;;;;2.03;1.52;;;;;;;8.92;99.08;99049.41;5013633;28;20054;-78
2024/02/22 06:37:41;;;;;;;2.85;1.58;;;;;;;8.87;99.29;99041.16;5013383;28;20061;-79
2024/02/22 06:40:08;;;;;;;2.70;1.60;;;;;;;8.86;98.87;99039.53;5012348;28;20050;-79
2024/02/22 06:42:35;;;;;;;1.05;0.98;;;;;;;8.91;99.62;99036.41;5013587;28;20151;-79
2024/02/22 06:45:04;;;;;;;4.25;3.03;;;;;;;8.95;98.55;99032.44;5012003;28;20099;-78
2024/02/22 06:47:31;;;;;;;4.22;3.83;;;;;;;8.89;98.76;99023.38;5017711;28;20499;-80
2024/02/22 06:49:57;;;;;;;1.45;1.35;;;;;;;8.86;98.62;99008.69;5014325;28;20050;-80
2024/02/22 06:52:24;;;;;;;2.58;1.98;;;;;;;8.90;98.04;99003.91;5012937;28;20100;-78
2024/02/22 06:54:52;;;;;;;1.75;1.45;;;;;;;8.93;98.69;98998.31;5012740;28;20053;-78
2024/02/22 06:57:19;;;;;;;2.28;0.80;;;;;;;8.96;98.32;98999.78;5016422;28;20137;-78
2024/02/22 06:59:45;;;;;;;1.70;1.60;;;;;;;8.99;98.69;98994.19;5016708;28;20137;-79
2024/02/22 07:02:15;;;;;;;2.70;2.50;;;;;;;8.95;98.12;98991.06;5012835;28;20081;-78
2024/02/22 07:04:42;;;;;;;4.55;2.35;;;;;;;8.98;97.74;98995.19;5013733;28;20053;-79
2024/02/22 07:07:08;;;;;;;3.50;1.27;;;;;;;9.00;98.14;99001.13;5023265;28;20548;-78
2024/02/22 07:09:36;;;;;;;1.23;0.82;;;;;;;9.06;98.09;98996.03;5015428;28;20056;-78
2024/02/22 07:12:04;;;;;;;4.72;3.92;;;;;;;9.03;98.45;98992.88;5019095;28;20072;-79
2024/02/22 07:14:31;;;;;;;0.70;0.70;;;;;;;9.01;98.09;98984.28;5016571;28;20137;-79
2024/02/22 07:16:57;;;;;;;1.75;1.45;;;;;;;9.00;97.97;98980.00;5021205;28;20081;-79
2024/02/22 07:19:24;;;;;;;1.50;1.27;;;;;;;9.09;98.02;98977.19;5015849;28;20473;-77
2024/02/22 07:21:51;;;;;;;1.75;1.33;;;;;;;9.07;97.87;98989.75;5022829;28;20584;-78
2024/02/22 07:24:18;;;;;;;1.23;1.13;;;;;;;9.08;97.63;98985.28;5015126;28;20101;-78
2024/02/22 07:26:46;;;;;;;0.80;0.80;;;;;;;9.06;97.71;98977.56;5014356;28;20052;-79
2024/02/22 07:29:14;;;;;;;2.85;2.55;;;;;;;9.09;96.37;98979.84;5016144;28;20128;-79
2024/02/22 07:31:40;;;;;;;1.63;1.45;;;;;;;9.07;97.51;98978.38;5014836;28;20054;-78
2024/02/22 07:34:08;;;;;;;2.22;1.98;;;;;;;9.08;97.40;98962.38;5015502;28;20104;-79
2024/02/22 07:36:35;;;;;;;0.98;0.98;;;;;;;9.06;97.70;98967.00;5015209;28;20057;-79
2024/02/22 07:39:02;;;;;;;1.52;1.00;;;;;;;9.05;97.42;98970.59;5015966;28;20045;-78
2024/02/22 07:41:29;;;;;;;2.40;1.25;;;;;;;9.07;97.79;98960.72;5015177;28;20050;-79
2024/02/22 07:43:56;;;;;;;1.85;1.05;;;;;;;9.17;97.73;98959.72;5016487;28;20089;-80
2024/02/22 07:46:24;;;;;;;2.97;1.27;;;;;;;9.20;97.05;98956.75;5008775;28;20057;-79
2024/02/22 07:48:50;;;;;;;1.10;1.00;;;;;;;9.22;96.15;98945.03;5030364;28;20054;-80
2024/02/22 07:51:17;;;;;;;1.45;1.10;;;;;;;9.28;96.02;98936.44;5022043;28;20420;-80
2024/02/22 07:53:44;;;;;;;2.45;1.30;;;;;;;9.31;95.98;98927.38;5023181;28;20085;-80
2024/02/22 07:56:11;;;;;;;1.08;0.55;;;;;;;9.40;95.61;98926.34;5022795;28;20052;-79
2024/02/22 07:58:49;;;;;;;0.75;0.75;;;;;;;9.45;95.51;98917.94;5025971;28;20046;-78
2024/02/22 08:01:15;;;;;;;0.60;0.60;;;;;;;9.45;95.51;98918.75;5021621;28;20060;-77
2024/02/22 08:03:44;;;;;;;1.83;1.00;;;;;;;9.46;96.49;98915.09;5025315;28;20153;-79
2024/02/22 08:06:12;;;;;;;1.60;1.13;;;;;;;9.53;96.01;98900.25;5021687;28;20678;-78
2024/02/22 08:08:39;;;;;;;3.95;1.63;;;;;;;9.65;95.49;98897.25;5009044;28;20054;-79
2024/02/22 08:11:07;;;;;;;2.33;0.98;;;;;;;9.69;95.37;98893.25;5012819;28;20050;-79
2024/02/22 08:13:34;;;;;;;1.25;1.10;;;;;;;9.74;95.56;98893.56;5015396;28;20176;-79
2024/02/22 08:16:06;;;;;;;1.33;0.80;;;;;;;9.73;95.33;98889.28;5025985;28;20260;-78
2024/02/22 08:18:33;;;;;;;3.20;1.40;;;;;;;9.76;94.33;98879.19;5015243;28;20458;-80
2024/02/22 08:21:02;;;;;;;1.30;1.00;;;;;;;9.72;95.17;98877.88;5015417;28;20419;-77
2024/02/22 08:23:28;;;;;;;3.25;1.05;;;;;;;9.78;95.18;98865.81;5013623;28;20073;-77
2024/02/22 08:25:55;;;;;;;2.22;1.58;;;;;;;9.83;94.41;98866.13;5015183;28;20133;-77
2024/02/22 08:28:23;;;;;;;4.07;2.28;;;;;;;9.97;94.13;98852.19;5016254;28;20050;-78
2024/02/22 08:30:50;;;;;;;5.88;3.08;;;;;;;9.98;94.00;98851.16;5025208;28;20081;-79
2024/02/22 08:33:17;;;;;;;5.10;3.10;;;;;;;9.96;93.55;98842.59;5021314;28;20045;-79
2024/02/22 08:35:44;;;;;;;4.72;3.20;;;;;;;10.03;93.40;98838.25;5022137;28;20050;-79
2024/02/22 08:38:12;;;;;;;4.25;3.05;;;;;;;10.07;93.44;98838.72;5021626;28;20080;-78
2024/02/22 08:40:39;;;;;;;5.57;3.13;;;;;;;10.06;93.77;98832.63;5025973;28;20049;-78
2024/02/22 08:43:06;;;;;;;5.90;2.85;;;;;;;10.13;93.94;98825.66;5018334;28;20073;-78
2024/02/22 08:45:33;;;;;;;4.97;2.70;;;;;;;10.07;93.62;98818.41;5016260;28;20101;-79
2024/02/22 08:48:02;;;;;;;5.63;2.80;;;;;;;10.16;93.70;98811.25;5014854;28;20482;-78
2024/02/22 08:50:29;;;;;;;5.25;2.53;;;;;;;10.19;93.26;98799.50;5015451;28;20053;-78
2024/02/22 08:52:56;;;;;;;2.60;1.85;;;;;;;10.30;92.55;98796.47;5015972;28;20046;-79
2024/02/22 08:55:25;;;;;;;2.20;2.00;;;;;;;10.43;92.38;98780.81;5018309;28;20046;-79
2024/02/22 08:57:52;;;;;;;4.18;2.38;;;;;;;10.30;93.89;98780.59;5017810;28;20048;-79
2024/02/22 09:00:19;;;;;;;2.00;1.80;;;;;;;10.37;92.44;98778.91;5019452;28;20111;-80
2024/02/22 09:02:46;;;;;;;2.20;2.00;;;;;;;10.43;91.65;98770.25;5017427;28;20104;-79
2024/02/22 09:05:13;;;;;;;3.40;1.85;;;;;;;10.48;91.66;98765.22;5017011;28;20085;-79
2024/02/22 09:07:39;;;;;;;2.20;1.90;;;;;;;10.59;90.33;98766.63;5018534;28;20053;-78
2024/02/22 09:10:10;;;;;;;2.55;2.17;;;;;;;10.53;91.19;98759.41;5015195;28;20104;-77
2024/02/22 09:12:40;;;;;;;4.03;2.40;;;;;;;10.65;91.56;98755.31;5016676;28;20046;-78
2024/02/22 09:15:10;;;;;;;3.25;2.58;;;;;;;10.67;90.18;98757.78;5016242;28;20393;-78
2024/02/22 09:17:36;;;;;;;5.68;2.70;;;;;;;10.68;89.32;98751.50;5015814;28;20123;-78
2024/02/22 09:20:05;;;;;;;3.55;2.50;;;;;;;10.74;89.62;98740.19;5015613;28;20042;-78
2024/02/22 09:22:32;;;;;;;2.55;2.20;;;;;;;10.80;88.44;98744.75;5018167;28;20042;-79
2024/02/22 09:24:58;;;;;;;3.28;1.70;;;;;;;10.85;88.83;98731.81;5019047;28;20496;-80
2024/02/22 09:27:25;;;;;;;1.95;1.73;;;;;;;10.98;88.72;98733.78;5021648;28;20490;-78
2024/02/22 09:29:54;;;;;;;2.80;1.90;;;;;;;10.93;87.59;98731.69;5018943;28;20100;-80
2024/02/22 09:32:20;;;;;;;1.77;1.67;;;;;;;11.08;87.33;98721.13;5018858;28;20092;-80
2024/02/22 09:34:47;;;;;;;1.88;1.30;;;;;;;11.30;86.26;98716.72;5021275;28;20128;-79
2024/02/22 09:37:16;;;;;;;2.20;1.63;;;;;;;11.41;85.44;98707.44;5018296;28;20081;-79
2024/02/22 09:39:43;;;;;;;4.47;1.60;;;;;;;11.70;85.32;98706.50;5021799;28;20129;-79
2024/02/22 09:42:11;;;;;;;2.13;1.65;;;;;;;11.79;84.01;98713.38;5024338;28;20050;-79
2024/02/22 09:44:38;;;;;;;1.50;1.40;;;;;;;11.78;83.01;98695.78;5020426;28;20046;-79
2024/02/22 09:47:08;;;;;;;1.27;1.00;;;;;;;11.61;85.66;98690.75;5018767;28;20045;-79
2024/02/22 09:49:39;;;;;;;1.92;1.10;;;;;;;11.56;84.01;98681.72;5017718;28;20073;-79
2024/02/22 09:52:10;;;;;;;1.52;1.42;;;;;;;11.57;85.25;98676.25;5017498;28;20069;-79
2024/02/22 09:54:36;;;;;;;1.98;1.40;;;;;;;11.49;85.58;98668.41;5018618;28;20069;-79
2024/02/22 09:57:03;;;;;;;1.88;1.52;;;;;;;11.52;85.67;98654.81;5020801;28;20137;-79
2024/02/22 09:59:29;;;;;;;2.60;1.58;;;;;;;11.69;84.67;98649.25;5021372;28;20042;-81
2024/02/22 10:01:57;;;;;;;4.13;1.67;;;;;;;11.84;85.10;98634.13;5015875;28;20488;-78
2024/02/22 10:04:25;;;;;;;1.90;1.65;;;;;;;12.04;83.71;98624.47;5014911;28;20147;-79
2024/02/22 10:07:00;;;;;;;1.40;1.17;;;;;;;11.95;84.15;98617.69;5013734;28;20177;-78
2024/02/22 10:09:27;;;;;;;2.35;1.75;;;;;;;12.01;83.59;98622.25;5014275;28;20085;-77
2024/02/22 10:11:54;;;;;;;2.97;2.20;;;;;;;12.19;83.76;98612.94;5014375;28;20077;-80
2024/02/22 10:14:20;;;;;;;2.17;1.60;;;;;;;12.23;83.74;98609.72;5014095;28;20523;-79
2024/02/22 10:16:48;;;;;;;3.35;1.45;;;;;;;12.26;83.60;98604.03;5013593;28;20081;-78
2024/02/22 10:19:16;;;;;;;4.78;2.03;;;;;;;12.39;82.73;98582.06;5015582;28;20045;-79
2024/02/22 10:21:46;;;;;;;2.80;1.88;;;;;;;12.48;82.53;98578.25;5016243;28;20046;-77
2024/02/22 10:24:13;;;;;;;1.75;1.27;;;;;;;12.42;81.92;98563.13;5013293;28;20060;-79
2024/02/22 10:26:39;;;;;;;2.03;1.52;;;;;;;12.28;83.47;98564.88;5014899;28;20050;-79
2024/02/22 10:29:12;;;;;;;1.33;1.17;;;;;;;12.19;83.12;98559.91;5013771;28;20065;-78
2024/02/22 10:31:44;;;;;;;2.58;1.52;;;;;;;12.22;82.63;98549.75;5013401;28;20419;-78
2024/02/22 10:34:12;;;;;;;;;;;;;;;12.18;83.82;98542.38;5014242;28;20045;-79
2024/02/22 10:36:40;;;;;;;1.38;1.17;;;;;;;12.20;83.75;98540.34;5062088;22;19925;-80
2024/02/22 10:39:09;;;;;;;2.92;1.15;;;;;;;12.26;83.65;98534.25;5047075;28;20049;-82
2024/02/22 10:41:37;;;;;;;1.83;0.90;;;;;;;12.35;83.56;98527.78;5045512;28;20049;-81
2024/02/22 10:44:04;;;;;;;1.27;1.00;;;;;;;12.54;82.22;98521.72;5045442;28;20049;-81
2024/02/22 10:46:35;;;;;;;1.35;0.90;;;;;;;12.62;80.69;98524.19;5038934;28;20045;-81
2024/02/22 10:49:06;;;;;;;0.50;0.50;;;;;;;12.72;81.15;98515.03;5044285;28;20117;-82
2024/02/22 10:51:35;;;;;;;0.73;0.57;;;;;;;12.75;80.19;98509.34;5044752;28;20455;-80
2024/02/22 10:54:04;;;;;;;1.00;0.63;;;;;;;12.88;79.50;98496.09;5042436;28;20049;-80
2024/02/22 10:56:34;;;;;;;3.13;1.15;;;;;;;12.90;79.81;98497.56;5045244;28;20060;-80
2024/02/22 10:59:05;;;;;;;0.73;0.70;;;;;;;13.07;79.15;98491.84;5046968;28;20211;-78
2024/02/22 11:01:33;;;;;;;1.13;1.02;;;;;;;13.13;79.04;98486.53;5045417;28;20135;-81
2024/02/22 11:04:01;;;;;;;1.45;1.08;;;;;;;13.19;79.44;98481.44;5044406;28;20055;-80
2024/02/22 11:06:28;;;;;;;1.00;0.93;;;;;;;13.40;78.29;98478.63;5043471;28;20072;-79
2024/02/22 11:09:00;;;;;;;1.60;1.02;;;;;;;13.33;77.62;98460.00;5043904;28;20076;-81
2024/02/22 11:11:28;;;;;;;1.08;0.77;;;;;;;13.23;78.28;98456.13;5042629;28;20053;-80
2024/02/22 11:14:02;;;;;;;2.47;1.25;;;;;;;13.37;78.41;98447.13;5044930;28;20072;-81
2024/02/22 11:16:35;;;;;;;0.60;0.60;;;;;;;13.38;77.63;98444.25;5043103;28;20083;-81
2024/02/22 11:19:09;;;;;;;0.80;0.80;;;;;;;13.29;77.65;98426.91;5043859;28;20105;-80
2024/02/22 11:21:37;;;;;;;0.98;0.80;;;;;;;13.19;77.65;98425.66;5042869;28;20053;-80
2024/02/22 11:24:12;;;;;;;2.00;0.90;;;;;;;13.14;79.03;98427.09;5043173;28;20045;-79
2024/02/22 11:26:40;;;;;;;0.75;0.75;;;;;;;13.11;78.51;98413.41;5036221;28;20046;-80
2024/02/22 11:29:08;;;;;;;1.13;0.93;;;;;;;13.15;78.10;98401.34;5041635;28;20041;-80
2024/02/22 11:31:36;;;;;;;3.00;0.77;;;;;;;13.20;77.81;98385.59;5042865;28;20053;-81
2024/02/22 11:34:02;;;;;;;1.08;0.77;;;;;;;13.21;79.76;98389.06;5042931;28;20226;-81
2024/02/22 11:36:31;;;;;;;1.20;0.82;;;;;;;13.20;78.63;98379.47;5041599;28;20068;-80
2024/02/22 11:39:01;;;;;;;2.50;0.77;;;;;;;13.26;79.09;98376.88;5042135;28;20092;-81
2024/02/22 11:41:30;;;;;;;1.98;0.98;;;;;;;13.20;79.30;98361.69;5034143;28;20431;-81
2024/02/22 11:44:03;;;;;;;1.00;0.85;;;;;;;13.16;78.46;98355.97;5042403;28;20057;-82
2024/02/22 11:46:35;;;;;;;0.80;0.80;;;;;;;13.19;78.15;98348.63;5035559;28;20424;-80
2024/02/22 11:49:02;;;;;;;0.80;0.80;;;;;;;13.20;78.42;98342.28;5041248;28;20052;-80
2024/02/22 11:51:29;;;;;;;2.05;1.05;;;;;;;13.08;79.19;98332.31;5041365;28;20073;-80
2024/02/22 11:53:57;;;;;;;2.42;1.00;;;;;;;13.15;79.35;98334.94;5041461;28;20045;-80
2024/02/22 11:56:23;;;;;;;2.00;1.08;;;;;;;13.26;79.14;98322.91;5041936;28;20056;-81
2024/02/22 11:58:50;;;;;;;1.25;1.00;;;;;;;13.27;79.22;98313.94;5043804;28;20459;-81
2024/02/22 12:01:18;;;;;;;2.05;0.98;;;;;;;13.34;79.27;98309.38;5042090;28;20049;-81
2024/02/22 12:03:47;;;;;;;1.92;1.25;;;;;;;13.31;79.64;98294.69;5043512;28;20045;-81
2024/02/22 12:06:14;;;;;;;1.20;0.90;;;;;;;13.43;78.87;98299.34;5042726;28;20053;-80
2024/02/22 12:08:41;;;;;;;2.60;1.20;;;;;;;13.47;77.93;98290.75;5041418;28;20063;-80
2024/02/22 12:11:08;;;;;;;0.85;0.80;;;;;;;13.41;78.51;98275.66;5042143;28;20084;-80
2024/02/22 12:13:35;;;;;;;1.48;1.05;;;;;;;13.34;78.57;98267.69;5047460;28;20053;-79
2024/02/22 12:16:06;;;;;;;2.40;0.95;;;;;;;13.31;78.95;98270.78;5050146;28;20087;-80
2024/02/22 12:18:33;;;;;;;1.58;0.85;;;;;;;13.22;79.75;98268.56;5050061;28;20037;-82
2024/02/22 12:21:01;;;;;;;0.85;0.85;;;;;;;13.21;79.19;98265.06;5049897;28;20069;-81
2024/02/22 12:23:27;;;;;;;2.67;0.88;;;;;;;13.19;80.12;98266.31;5050328;28;20053;-79
2024/02/22 12:25:55;;;;;;;0.95;0.90;;;;;;;13.13;80.08;98254.69;5048783;28;20065;-80
2024/02/22 12:28:22;;;;;;;1.50;0.50;;;;;;;13.19;80.47;98245.06;5046175;28;20050;-80
2024/02/22 12:30:48;;;;;;;1.98;1.23;;;;;;;13.26;80.03;98230.78;5043850;28;20049;-79
2024/02/22 12:33:22;;;;;;;1.42;1.20;;;;;;;13.22;79.76;98215.44;5043376;28;20046;-81
2024/02/22 12:35:49;;;;;;;1.27;1.17;;;;;;;13.27;80.03;98210.34;5037622;28;20132;-79
2024/02/22 12:38:17;;;;;;;2.25;0.95;;;;;;;13.38;79.58;98191.06;5035793;28;20507;-80
2024/02/22 12:40:44;;;;;;;1.40;1.13;;;;;;;13.45;79.35;98188.38;5038116;28;20070;-81
2024/02/22 12:43:13;;;;;;;0.30;0.30;;;;;;;13.43;78.70;98175.28;5040788;28;20103;-82
2024/02/22 12:45:40;;;;;;;0.40;0.40;;;;;;;13.43;78.79;98175.28;5040738;28;20049;-80
2024/02/22 12:48:07;;;;;;;0.75;0.47;;;;;;;13.43;78.35;98164.66;5041312;28;20049;-82
2024/02/22 12:50:34;;;;;;;1.23;0.40;;;;;;;13.46;78.27;98150.16;5040512;28;20045;-80
2024/02/22 12:53:01;;;;;;;0.30;0.30;;;;;;;13.51;77.76;98129.88;5047296;28;20076;-81
2024/02/22 12:55:31;;;;;;;0.57;0.32;;;;;;;13.54;77.90;98129.44;5050714;28;20081;-81
2024/02/22 12:57:58;;;;;;;0.47;0.40;;;;;;;13.50;78.11;98122.94;5044714;28;20050;-81
2024/02/22 13:00:25;;;;;;;3.25;0.68;;;;;;;13.52;78.07;98120.88;5033366;28;20049;-81
2024/02/22 13:02:52;;;;;;;0.52;0.52;;;;;;;13.50;77.75;98116.81;5040992;28;20056;-81
2024/02/22 13:05:19;;;;;;;0.55;0.55;;;;;;;13.57;78.04;98102.47;5040773;28;20084;-81
2024/02/22 13:07:46;;;;;;;0.65;0.65;;;;;;;13.56;78.10;98090.19;5040968;28;20133;-80
2024/02/22 13:10:12;;;;;;;2.85;0.45;;;;;;;13.61;77.78;98076.25;5039197;28;20141;-79
2024/02/22 13:12:40;;;;;;;1.42;0.93;;;;;;;13.75;77.55;98063.66;5039161;28;20536;-81
2024/02/22 13:15:08;;;;;;;2.15;0.65;;;;;;;13.74;76.74;98054.88;5039287;28;20081;-78
2024/02/22 13:17:34;;;;;;;0.85;0.47;;;;;;;13.78;76.82;98053.41;5040645;28;20060;-80
2024/02/22 13:20:01;;;;;;;1.60;0.77;;;;;;;13.75;76.95;98043.22;5039539;28;20053;-78
2024/02/22 13:22:28;;;;;;;0.80;0.65;;;;;;;13.76;76.81;98025.44;5039280;28;20085;-81
2024/02/22 13:24:54;;;;;;;1.35;0.80;;;;;;;13.77;77.17;98014.56;5039999;28;20045;-78